Latest Weather Observations for Essendon Airport

IDV60801

Issued at 5:22 am EDT Tuesday 19 January 2021 (issued every 10 minutes, with the page automatically refreshed every 10 minutes)

About weather observations | Map of weather stations | Latest weather observations for VIC | Other Formats
Station Details ID: 086038 Name: ESSENDON AIRPORT Lat: -37.73 Lon: 144.91 Height: 78.4 m
Data from the previous 72 hours. | See also: Recent months at Essendon Airport
Date/Time
EDT
Temp
°C
App
Temp
°C
Dew
Point
°C
Rel
Hum
%
Delta-T
°C
Wind Press
QNH
hPa
Press
MSL
hPa
Rain since
9am
mm
Dir  Spd
km/h
Gust
km/h
Spd
kts
Gust
kts
19/05:00am 14.4 10.4 9.0 70 2.7 SSW 20 26 11 14 1020.3 1020.1 0.4
19/04:30am 14.6 10.0 9.6 72 2.6 SSW 24 33 13 18 1020.0 1019.8 0.4
19/04:00am 14.3 9.6 7.8 65 3.2 SSW 22 30 12 16 1019.7 1019.5 0.4
19/03:30am 14.7 10.2 9.9 73 2.5 SSW 24 32 13 17 1019.6 1019.4 0.4
19/03:00am 14.2 10.8 11.4 83 1.5 SW 20 26 11 14 1019.3 1019.1 0.4
19/02:30am 14.0 11.3 11.7 86 1.2 SW 17 24 9 13 1019.4 1019.2 0.4
19/02:00am 13.8 10.4 11.3 85 1.3 SW 20 26 11 14 1019.4 1019.2 0.4
19/01:30am 14.1 10.5 12.0 87 1.1 SW 22 30 12 16 1019.4 1019.2 0.4
19/01:00am 14.4 10.4 11.9 85 1.3 SW 24 30 13 16 1019.5 1019.3 0.4
19/12:30am 14.6 11.6 12.1 85 1.4 SW 19 24 10 13 1019.6 1019.4 0.4
19/12:00am 14.3 12.2 12.5 89 1.0 SSW 15 20 8 11 1019.3 1019.1 0.4
 
Date/Time
EDT
Temp
°C
App
Temp
°C
Dew
Point
°C
Rel
Hum
%
Delta-T
°C
Wind Press
QNH
hPa
Press
MSL
hPa
Rain since
9am
mm
Dir  Spd
km/h
Gust
km/h
Spd
kts
Gust
kts
18/11:30pm 14.6 12.2 12.6 88 1.1 SW 17 20 9 11 1019.4 1019.2 0.4
18/11:00pm 14.4 11.5 12.8 90 0.9 SW 20 28 11 15 1019.3 1019.1 0.4
18/10:30pm 14.1 11.2 13.0 93 0.6 SW 20 28 11 15 1019.2 1019.0 0.4
18/10:14pm 13.9 10.7 13.0 94 0.5 SW 22 32 12 17 1019.3 1019.1 0.4
18/10:00pm 13.8 9.8 13.0 95 0.4 SSW 26 39 14 21 1019.3 1019.1 0.4
18/09:30pm 14.9 10.7 13.6 92 0.7 SSW 28 37 15 20 1018.8 1018.5 0.0
18/09:14pm 15.4 11.6 13.6 89 1.0 SSW 26 37 14 20 1018.5 1018.2 0.0
18/09:00pm 16.6 12.5 12.6 77 2.2 S 26 37 14 20 1018.4 1018.1 0.0
18/08:30pm 17.0 12.8 12.3 74 2.6 S 26 35 14 19 1018.0 1017.7 0.0
18/08:00pm 17.6 13.8 12.5 72 2.8 S 24 37 13 20 1017.6 1017.3 0.0
18/07:30pm 17.9 14.2 12.6 71 3.0 S 24 35 13 19 1017.1 1016.8 0.0
18/07:00pm 18.5 14.1 12.9 70 3.2 SSE 28 39 15 21 1016.5 1016.2 0.0
18/06:30pm 19.1 15.4 12.8 67 3.6 SSE 24 33 13 18 1016.3 1016.0 0.0
18/06:00pm 19.1 15.0 12.6 66 3.6 S 26 37 14 20 1016.2 1015.9 0.0
18/05:30pm 19.2 13.9 12.5 65 3.8 SSE 32 39 17 21 1016.3 1016.0 0.0
18/05:00pm 18.8 13.8 13.4 71 3.1 SSE 32 41 17 22 1016.6 1016.3 0.0
18/04:30pm 19.0 14.1 12.5 66 3.6 S 30 39 16 21 1016.5 1016.2 0.0
18/04:00pm 20.3 15.9 12.8 62 4.3 SSE 28 37 15 20 1016.2 1015.9 0.0
18/03:30pm 21.3 17.0 13.2 60 4.7 SSE 28 35 15 19 1016.0 1015.7 0.0
18/03:00pm 25.0 19.0 10.8 41 8.0 SW 33 46 18 25 1015.9 1015.6 0.0
18/02:49pm 24.4 18.3 9.6 39 8.1 WSW 32 52 17 28 1015.8 1015.5 0.0
18/02:30pm 24.4 18.6 10.7 42 7.6 SW 32 46 17 25 1016.0 1015.7 0.0
18/02:15pm 24.4 19.0 9.6 39 8.1 WSW 28 48 15 26 1016.0 1015.7 0.0
18/02:00pm 22.9 18.8 10.0 44 7.1 WSW 22 37 12 20 1016.0 1015.7 0.0
18/01:56pm 23.1 18.2 11.2 47 6.7 SW 28 46 15 25 1016.1 1015.8 0.0
18/01:30pm 23.0 18.3 10.8 46 6.8 WSW 26 39 14 21 1016.5 1016.2 0.0
18/01:00pm 22.2 18.4 11.3 50 6.1 SW 22 33 12 18 1016.9 1016.6 0.0
18/12:30pm 20.8 16.2 11.2 54 5.3 SW 26 37 14 20 1017.2 1016.9 0.0
18/12:00pm 19.1 14.6 9.9 55 4.9 WSW 24 32 13 17 1017.4 1017.1 0.0
18/11:30am 18.6 13.7 9.9 57 4.6 SW 26 35 14 19 1017.7 1017.4 0.0
18/11:00am 18.2 12.7 10.6 61 4.1 SW 30 37 16 20 1018.1 1017.8 0.0
18/10:30am 17.1 11.6 12.0 72 2.8 WSW 32 43 17 23 1018.5 1018.2 0.0
18/10:00am 16.8 12.4 11.7 72 2.8 SW 26 35 14 19 1018.4 1018.1 0.0
18/09:57am 16.8 12.8 11.7 72 2.8 SW 24 35 13 19 1018.4 1018.1 0.0
18/09:30am 14.9 12.1 13.1 89 1.0 SW 20 28 11 15 1018.3 1018.0 0.0
18/09:00am 15.4 13.2 12.2 81 1.7 SW 15 20 8 11 1018.1 1017.8 0.0
18/08:30am 15.8 13.4 12.5 81 1.8 WSW 17 24 9 13 1017.9 1017.6 0.0
18/08:28am 15.3 12.7 12.1 81 1.7 WSW 17 24 9 13 1017.9 1017.6 0.0
18/08:00am 14.6 12.8 12.1 85 1.4 W 13 20 7 11 1017.8 1017.5 0.0
18/07:30am 14.2 12.0 12.1 87 1.1 WSW 15 20 8 11 1017.7 1017.4 0.0
18/07:14am 13.8 11.5 11.8 88 1.1 WSW 15 20 8 11 1017.6 1017.3 0.0
18/07:03am 14.0 11.2 11.3 84 1.4 WSW 17 24 9 13 1017.7 1017.4 0.0
18/07:00am 14.3 11.9 11.3 82 1.6 WSW 15 20 8 11 1017.6 1017.3 0.0
18/06:30am 14.1 11.9 10.9 81 1.7 WSW 13 17 7 9 1017.5 1017.2 0.0
18/06:00am 14.1 11.9 10.9 81 1.7 W 13 17 7 9 1017.4 1017.1 0.0
18/05:30am 13.9 11.7 10.9 82 1.6 W 13 19 7 10 1017.3 1017.0 0.0
18/05:00am 13.7 11.1 10.7 82 1.6 W 15 19 8 10 1017.1 1016.8 0.0
18/04:30am 13.8 11.5 10.4 80 1.8 WSW 13 19 7 10 1017.2 1016.9 0.0
18/04:00am 13.8 10.6 10.0 78 2.0 WSW 17 20 9 11 1017.3 1017.0 0.0
18/03:30am 13.9 10.6 9.7 76 2.2 WSW 17 20 9 11 1017.5 1017.2 0.0
18/03:00am 13.8 10.5 9.6 76 2.2 WSW 17 22 9 12 1017.7 1017.4 0.0
18/02:30am 13.8 10.5 9.5 75 2.2 WSW 17 22 9 12 1017.8 1017.5 0.0
18/02:00am 13.6 9.8 9.1 74 2.3 WSW 19 24 10 13 1018.2 1017.9 0.0
18/01:30am 12.9 8.9 9.0 77 2.0 WSW 20 26 11 14 1018.4 1018.1 0.0
18/01:00am 12.9 9.5 9.0 77 2.0 WSW 17 24 9 13 1018.5 1018.2 0.0
18/12:30am 13.5 10.1 9.0 74 2.3 WSW 17 24 9 13 1018.7 1018.4 0.0
18/12:00am 14.2 9.8 9.0 71 2.6 SW 22 28 12 15 1018.8 1018.5 0.0
 
Date/Time
EDT
Temp
°C
App
Temp
°C
Dew
Point
°C
Rel
Hum
%
Delta-T
°C
Wind Press
QNH
hPa
Press
MSL
hPa
Rain since
9am
mm
Dir  Spd
km/h
Gust
km/h
Spd
kts
Gust
kts
17/11:30pm 15.5 12.6 11.1 75 2.4 SSW 17 22 9 12 1018.7 1018.4 0.0
17/11:00pm 15.9 13.1 11.5 75 2.4 S 17 22 9 12 1018.7 1018.4 0.0
17/10:30pm 15.5 13.6 11.7 78 2.1 S 13 19 7 10 1018.7 1018.4 0.0
17/10:00pm 15.5 12.7 11.3 76 2.3 S 17 24 9 13 1018.5 1018.2 0.0
17/09:30pm 15.7 12.5 11.3 75 2.4 S 19 26 10 14 1018.4 1018.1 0.0
17/09:00pm 15.7 12.3 11.3 75 2.4 SSE 20 28 11 15 1018.2 1017.9 0.0
17/08:30pm 16.0 12.5 11.0 72 2.7 S 20 26 11 14 1017.9 1017.6 0.0
17/08:00pm 16.6 13.2 11.3 71 2.9 S 20 32 11 17 1017.5 1017.2 0.0
17/07:30pm 17.2 13.4 11.2 68 3.3 S 22 33 12 18 1017.3 1017.0 0.0
17/07:00pm 17.4 13.0 10.5 64 3.7 SSE 24 32 13 17 1017.3 1017.0 0.0
17/06:30pm 18.0 13.7 10.9 63 3.8 S 24 32 13 17 1017.3 1017.0 0.0
17/06:00pm 18.8 14.9 10.9 60 4.3 S 22 33 12 18 1017.1 1016.8 0.0
17/05:30pm 18.6 14.4 9.7 56 4.7 SSE 22 30 12 16 1017.1 1016.8 0.0
17/05:00pm 18.9 14.4 10.2 57 4.7 S 24 35 13 19 1017.2 1016.9 0.0
17/04:30pm 20.0 15.7 9.3 50 5.7 SSE 22 32 12 17 1017.3 1017.0 0.0
17/04:00pm 20.2 16.4 9.2 49 5.8 SSE 19 30 10 16 1017.5 1017.2 0.0
17/03:30pm 19.7 15.7 9.0 50 5.6 SSE 20 32 11 17 1017.9 1017.6 0.0
17/03:00pm 19.8 15.8 8.2 47 6.0 S 19 24 10 13 1018.0 1017.7 0.0
17/02:30pm 19.2 15.9 8.2 49 5.7 SSE 15 22 8 12 1018.1 1017.8 0.0
17/02:00pm 18.9 14.3 8.3 50 5.5 SSE 22 30 12 16 1018.4 1018.1 0.0
17/01:30pm 19.0 14.2 7.4 47 5.9 SSW 22 32 12 17 1018.4 1018.1 0.0
17/01:00pm 19.5 14.5 6.6 43 6.5 SW 22 30 12 16 1018.7 1018.4 0.0
17/12:30pm 19.0 14.2 7.4 47 5.9 SW 22 33 12 18 1018.8 1018.5 0.0
17/12:00pm 17.9 13.5 7.6 51 5.2 WSW 20 28 11 15 1018.9 1018.6 0.0
17/11:30am 17.2 12.7 7.0 51 5.1 SSW 20 28 11 15 1019.0 1018.8 0.0
17/11:00am 16.9 12.5 7.3 53 4.8 SW 20 28 11 15 1019.0 1018.8 0.0
17/10:30am 16.6 11.5 7.5 55 4.6 SW 24 35 13 19 1019.1 1018.9 0.0
17/10:00am 16.9 12.4 7.0 52 4.9 SSW 20 32 11 17 1019.2 1019.0 0.0
17/09:30am 15.8 10.6 7.1 56 4.3 SW 24 32 13 17 1019.1 1018.9 0.0
17/09:00am 14.7 9.8 7.0 60 3.8 SW 22 30 12 16 1018.9 1018.6 0.2
17/08:30am 14.3 10.2 8.0 66 3.1 WSW 19 24 10 13 1018.5 1018.2 0.2
17/08:00am 13.2 9.5 8.1 71 2.5 WSW 17 20 9 11 1018.2 1017.9 0.2
17/07:30am 12.4 8.7 8.1 75 2.1 WSW 17 20 9 11 1017.8 1017.5 0.2
17/07:00am 11.9 8.2 8.0 77 1.9 W 17 20 9 11 1017.6 1017.3 0.2
17/06:30am 11.3 7.5 7.4 77 1.9 W 17 20 9 11 1017.2 1016.9 0.2
17/06:00am 11.7 7.9 7.6 76 2.0 W 17 22 9 12 1017.0 1016.7 0.2
17/05:30am 11.8 8.5 7.9 77 1.9 WSW 15 19 8 10 1016.9 1016.6 0.2
17/05:00am 12.2 8.5 8.1 76 2.0 WSW 17 20 9 11 1016.8 1016.5 0.2
17/04:30am 12.4 8.5 8.5 77 1.9 WSW 19 24 10 13 1016.7 1016.4 0.2
17/04:00am 12.3 8.2 8.6 78 1.8 WSW 20 26 11 14 1016.7 1016.4 0.2
17/03:30am 12.2 8.7 8.7 79 1.7 W 17 20 9 11 1016.6 1016.3 0.2
17/03:00am 12.1 8.2 8.8 80 1.6 W 19 20 10 11 1016.8 1016.5 0.2
17/02:30am 12.2 8.3 8.7 79 1.7 W 19 22 10 12 1016.8 1016.5 0.2
17/02:00am 12.8 8.9 8.7 76 2.1 WSW 19 24 10 13 1016.8 1016.5 0.2
17/01:30am 13.0 8.6 8.9 76 2.1 WSW 22 28 12 15 1016.6 1016.3 0.2
17/01:00am 13.2 8.7 8.7 74 2.3 WSW 22 28 12 15 1016.4 1016.1 0.2
17/12:30am 13.2 8.7 8.5 73 2.4 WSW 22 30 12 16 1016.3 1016.0 0.2
17/12:00am 13.7 9.5 8.1 69 2.8 WSW 20 28 11 15 1016.3 1016.0 0.2
 
Date/Time
EDT
Temp
°C
App
Temp
°C
Dew
Point
°C
Rel
Hum
%
Delta-T
°C
Wind Press
QNH
hPa
Press
MSL
hPa
Rain since
9am
mm
Dir  Spd
km/h
Gust
km/h
Spd
kts
Gust
kts
16/11:30pm 14.0 9.4 8.0 67 3.0 WSW 22 32 12 17 1016.2 1015.9 0.2
16/11:00pm 14.5 10.2 7.8 64 3.3 WSW 20 28 11 15 1016.2 1015.9 0.2
16/10:30pm 15.5 10.1 7.8 60 3.9 SW 26 35 14 19 1016.2 1015.9 0.2
16/10:00pm 16.1 10.8 8.3 60 4.0 SW 26 37 14 20 1016.0 1015.7 0.2
16/09:30pm 16.5 10.5 8.7 60 4.0 SW 30 39 16 21 1015.7 1015.4 0.2
16/09:10pm 16.6 10.3 9.1 61 3.9 SW 32 50 17 27 1015.6 1015.3 0.2
16/09:00pm 17.0 12.0 9.4 61 4.0 SW 26 35 14 19 1015.5 1015.2 0.2
16/08:30pm 17.2 11.4 9.6 61 4.0 SW 30 39 16 21 1014.9 1014.7 0.2
16/08:00pm 17.6 11.5 9.8 60 4.1 SW 32 39 17 21 1014.7 1014.5 0.2
16/07:30pm 17.7 11.8 10.6 63 3.8 SW 32 44 17 24 1014.4 1014.2 0.2
16/07:00pm 18.0 10.9 10.9 63 3.8 SW 39 52 21 28 1014.0 1013.8 0.2
16/06:35pm 18.7 11.0 10.0 57 4.6 WSW 41 59 22 32 1013.5 1013.3 0.2
16/06:30pm 19.5 11.9 10.5 56 4.9 WSW 41 52 22 28 1013.5 1013.3 0.2
16/06:00pm 18.6 12.0 11.4 63 3.9 WSW 37 59 20 32 1013.7 1013.5 0.2
16/05:32pm 19.5 12.7 9.4 52 5.4 WSW 35 54 19 29 1013.4 1013.2 0.2
16/05:30pm 19.8 13.2 10.0 53 5.3 WSW 35 50 19 27 1013.4 1013.2 0.2
16/05:00pm 20.0 13.8 10.1 53 5.3 WSW 33 43 18 23 1013.5 1013.3 0.2
16/04:30pm 19.5 11.5 9.1 51 5.5 WSW 41 54 22 29 1013.5 1013.3 0.2
16/04:21pm 19.1 12.2 8.7 51 5.4 SW 35 54 19 29 1013.6 1013.4 0.2
16/04:00pm 19.8 13.1 9.7 52 5.4 WSW 35 46 19 25 1013.6 1013.4 0.2
16/03:30pm 19.5 12.2 8.8 50 5.6 WSW 37 52 20 28 1013.7 1013.5 0.2
16/03:00pm 19.0 12.7 8.9 52 5.3 WSW 32 41 17 22 1014.1 1013.9 0.0
16/02:30pm 18.0 10.2 8.3 53 5.0 WSW 39 50 21 27 1014.4 1014.2 0.0
16/02:00pm 18.5 12.0 8.2 51 5.3 SW 32 46 17 25 1014.6 1014.4 0.0
16/01:30pm 16.7 10.1 7.9 56 4.5 WSW 32 43 17 23 1014.9 1014.7 0.0
16/01:00pm 16.0 8.9 8.0 59 4.0 WSW 35 46 19 25 1015.4 1015.1 0.0
16/12:36pm 16.4 9.6 7.1 54 4.6 WSW 32 44 17 24 1015.4 1015.1 0.0
16/12:30pm 16.8 10.2 7.7 55 4.6 W 32 41 17 22 1015.3 1015.0 0.0
16/12:03pm 16.1 8.7 6.8 54 4.6 WSW 35 54 19 29 1015.3 1015.0 0.0
16/12:00pm 16.6 9.3 7.0 53 4.8 WSW 35 50 19 27 1015.2 1014.9 0.0
16/11:45am 16.6 9.4 6.1 50 5.1 WSW 33 56 18 30 1014.8 1014.6 0.0
16/11:30am 15.8 9.2 7.6 58 4.1 WSW 32 48 17 26 1014.9 1014.7 0.0
16/11:00am 16.5 9.5 6.9 53 4.8 SW 33 44 18 24 1014.4 1014.2 0.0
16/10:30am 16.9 8.6 7.8 55 4.6 WSW 41 52 22 28 1014.3 1014.1 0.0
16/10:20am 16.9 10.7 7.8 55 4.6 WSW 30 56 16 30 1014.2 1014.0 0.0
16/10:00am 16.2 9.7 8.2 59 4.1 WSW 32 44 17 24 1014.2 1014.0 0.0
16/09:30am 15.3 8.9 8.5 64 3.5 WSW 32 44 17 24 1014.3 1014.1 0.0
16/09:00am 15.6 9.7 10.4 71 2.7 WSW 32 44 17 24 1014.0 1013.8 0.8
16/08:30am 14.0 8.4 10.2 78 2.0 WSW 30 41 16 22 1013.8 1013.6 0.8
16/08:00am 12.9 8.1 10.4 85 1.3 WSW 26 37 14 20 1013.6 1013.4 0.8
16/07:30am 12.7 8.8 10.8 88 1.0 WSW 22 28 12 15 1013.1 1012.9 0.8
16/07:00am 12.3 8.7 10.4 88 1.0 WSW 20 26 11 14 1012.9 1012.7 0.8
16/06:30am 11.8 7.3 10.2 90 0.8 WSW 24 35 13 19 1012.5 1012.3 0.8
16/06:29am 11.8 7.3 10.2 90 0.8 WSW 24 35 13 19 1012.5 1012.3 0.8
16/06:00am 11.8 8.0 9.0 83 1.4 W 19 26 10 14 1012.1 1011.9 0.8
16/05:30am 11.5 7.4 8.5 82 1.5 W 20 26 11 14 1011.9 1011.7 0.8

Other formats

Comma delimited format used in spreadsheet applications
http://www.bom.gov.au/fwo/IDV60801/IDV60801.95866.axf

JavaScript Object Notation format (JSON) in row-major order
http://www.bom.gov.au/fwo/IDV60801/IDV60801.95866.json

Data quality

Most of these data are generated automatically and are frequently updated. Quality checks on data are not normally performed. It is possible for incorrect values to appear. Refer to information at About Latest Weather Observations and please check the disclaimer before using these data.